Time;durP1;ratioP1;P1;durP2;ratioP2;P2;SDS_P1;SDS_P2;PMS_P1;PMS_P2;Temp;Humidity;BMP_temperature;BMP_pressure;BME280_temperature;BME280_humidity;BME280_pressure;Samples;Min_cycle;Max_cycle;Signal;HPM_P1;HPM_P2
2023/05/24 05:36:54;;;;;;;;;;;;;;;-143.29;100.00;62188.47;4868865;24;19932;31
2023/05/24 05:47:50;;;;;;;;;;;;;;;-143.29;100.00;62188.47;5060387;24;19930;31
2023/05/24 08:30:13;;;;;;;;;;;;;;;-143.29;100.00;62188.47;5336896;24;19932;-96
2023/05/24 08:37:53;;;;;;;;;;;;;;;-143.29;100.00;62188.47;5235227;24;19999;-96
2023/05/24 08:40:18;;;;;;;;;;;;;;;-143.29;100.00;62188.47;4651286;30;19924;-93
2023/05/24 09:24:41;;;;;;;;;;;;;;;-143.29;100.00;62188.47;4788022;24;19932;-96
2023/05/24 09:27:07;;;;;;;;;;;;;;;-143.29;100.00;62188.47;4666922;30;19924;-96
2023/05/24 09:34:43;;;;;;;;;;;;;;;-143.29;100.00;62188.47;5014463;25;19940;-96
2023/05/24 09:37:16;;;;;;;;;;;;;;;-143.29;100.00;62188.47;4835835;25;19937;-96
2023/05/24 09:39:49;;;;;;;;;;;;;;;-143.29;100.00;62188.47;4880860;25;20250;-96
2023/05/24 09:42:16;;;;;;;;;;;;;;;-143.29;100.00;62188.47;4660424;30;19941;-96
2023/05/24 09:44:48;;;;;;;;;;;;;;;-143.29;100.00;62188.47;4659845;30;19927;-95
2023/05/24 09:47:15;;;;;;;;;;;;;;;-143.29;100.00;62188.47;4771298;25;19978;-96
2023/05/24 09:52:30;;;;;;;;;;;;;;;-143.29;100.00;62188.47;5566565;24;19918;-96
2023/05/24 10:02:43;;;;;;;;;;;;;;;-143.29;100.00;62188.47;5627399;24;19922;-96
2023/05/24 12:53:42;;;;;;;;;;;;;;;-143.29;100.00;62188.47;4672011;30;19938;-96
2023/05/24 12:56:07;;;;;;;;;;;;;;;-143.29;100.00;62188.47;4672299;30;20408;-96
2023/05/24 12:58:42;;;;;;;;;;;;;;;-143.29;100.00;62188.47;4672065;30;19962;-96
2023/05/24 13:01:09;;;;;;;;;;;;;;;-143.29;100.00;62188.47;4664235;30;19939;-96
2023/05/24 13:03:46;;;;;;;;;;;;;;;-143.29;100.00;62188.47;4652115;30;19909;-96
2023/05/24 13:06:13;;;;;;;;;;;;;;;-143.29;100.00;62188.47;4665613;30;20376;-96
2023/05/24 13:08:44;;;;;;;;;;;;;;;-143.29;100.00;62188.47;4652906;30;19935;-96
2023/05/24 13:11:17;;;;;;;;;;;;;;;-143.29;100.00;62188.47;4820012;24;19942;-96
2023/05/24 13:18:45;;;;;;;;;;;;;;;-143.29;100.00;62188.47;4645720;30;19933;-96
2023/05/24 13:21:10;;;;;;;;;;;;;;;-143.29;100.00;62188.47;4658038;30;20377;-95
2023/05/24 13:23:37;;;;;;;;;;;;;;;-143.29;100.00;62188.47;4661774;30;20031;-96
2023/05/24 13:26:02;;;;;;;;;;;;;;;-143.29;100.00;62188.47;4659937;30;19933;-96
2023/05/24 13:28:32;;;;;;;;;;;;;;;-143.29;100.00;62188.47;4655315;30;19924;-96
2023/05/24 13:30:57;;;;;;;;;;;;;;;-143.29;100.00;62188.47;4656353;30;20445;-96
2023/05/24 13:33:25;;;;;;;;;;;;;;;-143.29;100.00;62188.47;4655310;30;19967;-96
2023/05/24 13:35:52;;;;;;;;;;;;;;;-143.29;100.00;62188.47;4656723;30;19987;-96
2023/05/24 13:38:26;;;;;;;;;;;;;;;-143.29;100.00;62188.47;4655694;30;19925;-96
2023/05/24 13:40:54;;;;;;;;;;;;;;;-143.29;100.00;62188.47;4710392;24;19932;-96
2023/05/24 13:43:19;;;;;;;;;;;;;;;-143.29;100.00;62188.47;4676734;30;19912;-95
2023/05/24 13:45:45;;;;;;;;;;;;;;;-143.29;100.00;62188.47;4675892;30;19908;-95
2023/05/24 13:48:10;;;;;;;;;;;;;;;-143.29;100.00;62188.47;4673378;30;19931;-96
2023/05/24 13:50:36;;;;;;;;;;;;;;;-143.29;100.00;62188.47;4654533;30;19932;-96
2023/05/24 13:53:12;;;;;;;;;;;;;;;-143.29;100.00;62188.47;4674141;30;19925;-96
2023/05/24 13:55:38;;;;;;;;;;;;;;;-143.29;100.00;62188.47;4664388;30;19928;-96
2023/05/24 13:58:04;;;;;;;;;;;;;;;-143.29;100.00;62188.47;4645721;30;20008;-96
2023/05/24 14:00:34;;;;;;;;;;;;;;;-143.29;100.00;62188.47;4674923;30;19927;-96
2023/05/24 14:03:05;;;;;;;;;;;;;;;-143.29;100.00;62188.47;4661515;30;19928;-96
2023/05/24 14:05:30;;;;;;;;;;;;;;;-143.29;100.00;62188.47;4675033;30;20355;-96
2023/05/24 14:08:05;;;;;;;;;;;;;;;-143.29;100.00;62188.47;4662297;30;19935;-96
2023/05/24 14:10:32;;;;;;;;;;;;;;;-143.29;100.00;62188.47;4667516;30;19919;-96
2023/05/24 14:13:16;;;;;;;;;;;;;;;-143.29;100.00;62188.47;4679033;30;19912;-96
2023/05/24 14:15:43;;;;;;;;;;;;;;;-143.29;100.00;62188.47;4700562;24;19932;-96
2023/05/24 14:18:11;;;;;;;;;;;;;;;-143.29;100.00;62188.47;4678807;30;20300;-96
2023/05/24 14:20:37;;;;;;;;;;;;;;;-143.29;100.00;62188.47;4655729;30;19954;-96
2023/05/24 14:23:03;;;;;;;;;;;;;;;-143.29;100.00;62188.47;4656809;30;20026;-96
2023/05/24 14:25:30;;;;;;;;;;;;;;;-143.29;100.00;62188.47;4659954;30;19908;-94
2023/05/24 14:27:58;;;;;;;;;;;;;;;-143.29;100.00;62188.47;4663415;30;19924;-96
2023/05/24 14:30:23;;;;;;;;;;;;;;;-143.29;100.00;62188.47;4664863;30;19931;-96
2023/05/24 14:32:50;;;;;;;;;;;;;;;-143.29;100.00;62188.47;4658050;30;19924;-96
2023/05/24 14:35:16;;;;;;;;;;;;;;;-143.29;100.00;62188.47;4663861;30;19928;-96
2023/05/24 14:37:41;;;;;;;;;;;;;;;-143.29;100.00;62188.47;4649342;30;19951;-96
2023/05/24 14:40:07;;;;;;;;;;;;;;;-143.29;100.00;62188.47;4644936;30;19929;-96
2023/05/24 14:42:32;;;;;;;;;;;;;;;-143.29;100.00;62188.47;4666622;30;19928;-96
2023/05/24 14:45:02;;;;;;;;;;;;;;;-143.29;100.00;62188.47;4668837;30;20385;-96
2023/05/24 14:47:28;;;;;;;;;;;;;;;-143.29;100.00;62188.47;4665198;30;19976;-96
2023/05/24 14:49:53;;;;;;;;;;;;;;;-143.29;100.00;62188.47;4664385;30;19929;-96
2023/05/24 14:52:24;;;;;;;;;;;;;;;-143.29;100.00;62188.47;4664124;30;19959;-96
2023/05/24 14:54:55;;;;;;;;;;;;;;;-143.29;100.00;62188.47;4653991;30;19937;-96
2023/05/24 15:05:06;;;;;;;;;;;;;;;-143.29;100.00;62188.47;5420442;25;19943;-96
2023/05/24 15:07:31;;;;;;;;;;;;;;;-143.29;100.00;62188.47;4641300;30;19933;-94
2023/05/24 15:09:56;;;;;;;;;;;;;;;-143.29;100.00;62188.47;4637654;30;20349;-96
2023/05/24 15:12:21;;;;;;;;;;;;;;;-143.29;100.00;62188.47;4643340;30;19939;-95
2023/05/24 15:14:47;;;;;;;;;;;;;;;-143.29;100.00;62188.47;4626298;30;19972;-96
2023/05/24 15:17:12;;;;;;;;;;;;;;;-143.29;100.00;62188.47;4625834;31;19943;-95
2023/05/24 15:19:38;;;;;;;;;;;;;;;-143.29;100.00;62188.47;4628040;30;19953;-94
2023/05/24 15:22:04;;;;;;;;;;;;;;;-143.29;100.00;62188.47;4627605;31;19976;-95
2023/05/24 15:24:29;;;;;;;;;;;;;;;-143.29;100.00;62188.47;4651040;30;19916;-96
2023/05/24 15:26:56;;;;;;;;;;;;;;;-143.29;100.00;62188.47;4687309;24;19923;-95
2023/05/24 15:29:24;;;;;;;;;;;;;;;-143.29;100.00;62188.47;4718817;24;19916;-96
2023/05/24 15:34:23;;;;;;;;;;;;;;;-143.29;100.00;62188.47;4877482;24;19936;-95
2023/05/24 15:39:33;;;;;;;;;;;;;;;-143.29;100.00;62188.47;4928209;24;19943;-95
2023/05/24 15:42:09;;;;;;;;;;;;;;;-143.29;100.00;62188.47;4647944;30;19912;-96
2023/05/24 15:44:35;;;;;;;;;;;;;;;-143.29;100.00;62188.47;4652240;30;19930;-95
2023/05/24 15:47:00;;;;;;;;;;;;;;;-143.29;100.00;62188.47;4636218;30;19960;-95
2023/05/24 15:49:25;;;;;;;;;;;;;;;-143.29;100.00;62188.47;4634916;30;20381;-96
2023/05/24 15:51:50;;;;;;;;;;;;;;;-143.29;100.00;62188.47;4654691;30;20034;-94
2023/05/24 15:54:16;;;;;;;;;;;;;;;-143.29;100.00;62188.47;4637041;30;19928;-95
2023/05/24 15:56:41;;;;;;;;;;;;;;;-143.29;100.00;62188.47;4640587;30;20377;-95
2023/05/24 15:59:06;;;;;;;;;;;;;;;-143.29;100.00;62188.47;4638535;30;19962;-94
2023/05/24 16:01:32;;;;;;;;;;;;;;;-143.29;100.00;62188.47;4631536;30;20388;-95
2023/05/24 16:03:57;;;;;;;;;;;;;;;-143.29;100.00;62188.47;4644077;30;19925;-94
2023/05/24 16:06:22;;;;;;;;;;;;;;;-143.29;100.00;62188.47;4653262;30;19924;-94
2023/05/24 16:08:48;;;;;;;;;;;;;;;-143.29;100.00;62188.47;4642227;30;19928;-93
2023/05/24 16:11:13;;;;;;;;;;;;;;;-143.29;100.00;62188.47;4644358;30;20011;-95
2023/05/24 16:13:38;;;;;;;;;;;;;;;-143.29;100.00;62188.47;4646642;30;19927;-94
2023/05/24 16:16:04;;;;;;;;;;;;;;;-143.29;100.00;62188.47;4641022;30;20019;-93
2023/05/24 16:18:33;;;;;;;;;;;;;;;-143.29;100.00;62188.47;4635769;30;19984;-93
2023/05/24 16:20:58;;;;;;;;;;;;;;;-143.29;100.00;62188.47;4633239;30;19935;-92
2023/05/24 16:23:23;;;;;;;;;;;;;;;-143.29;100.00;62188.47;4640608;30;20022;-91
2023/05/24 16:25:49;;;;;;;;;;;;;;;-143.29;100.00;62188.47;4639606;30;19924;-93
2023/05/24 16:28:15;;;;;;;;;;;;;;;-143.29;100.00;62188.47;4646780;30;19928;-91
2023/05/24 16:30:40;;;;;;;;;;;;;;;-143.29;100.00;62188.47;4641831;30;19932;-90
2023/05/24 16:33:05;;;;;;;;;;;;;;;-143.29;100.00;62188.47;4635807;30;19932;-90
2023/05/24 16:35:31;;;;;;;;;;;;;;;-143.29;100.00;62188.47;4645945;30;19924;-90
2023/05/24 16:37:56;;;;;;;;;;;;;;;-143.29;100.00;62188.47;4645357;30;19928;-90
2023/05/24 16:40:21;;;;;;;;;;;;;;;-143.29;100.00;62188.47;4652647;30;19929;-91
2023/05/24 16:42:48;;;;;;;;;;;;;;;-143.29;100.00;62188.47;4630116;30;20344;-91
2023/05/24 16:45:13;;;;;;;;;;;;;;;-143.29;100.00;62188.47;4633578;30;19959;-90
2023/05/24 16:47:39;;;;;;;;;;;;;;;-143.29;100.00;62188.47;4645298;30;20447;-90
2023/05/24 16:50:04;;;;;;;;;;;;;;;-143.29;100.00;62188.47;4635054;30;19927;-89
2023/05/24 16:52:30;;;;;;;;;;;;;;;-143.29;100.00;62188.47;4647751;30;19929;-90
2023/05/24 16:54:55;;;;;;;;;;;;;;;-143.29;100.00;62188.47;4652769;30;20388;-90
2023/05/24 16:57:20;;;;;;;;;;;;;;;-143.29;100.00;62188.47;4631839;30;19931;-91
2023/05/24 16:59:47;;;;;;;;;;;;;;;-143.29;100.00;62188.47;4640633;30;20018;-91
2023/05/24 17:02:12;;;;;;;;;;;;;;;-143.29;100.00;62188.47;4642020;30;19964;-90
2023/05/24 17:04:37;;;;;;;;;;;;;;;-143.29;100.00;62188.47;4639422;30;19960;-90
2023/05/24 17:07:03;;;;;;;;;;;;;;;-143.29;100.00;62188.47;4662730;30;19928;-90
2023/05/24 17:09:28;;;;;;;;;;;;;;;-143.29;100.00;62188.47;4647344;30;19924;-90
2023/05/24 17:11:53;;;;;;;;;;;;;;;-143.29;100.00;62188.47;4663862;30;19928;-91
2023/05/24 17:14:19;;;;;;;;;;;;;;;-143.29;100.00;62188.47;4646403;30;20305;-91
2023/05/24 17:16:44;;;;;;;;;;;;;;;-143.29;100.00;62188.47;4638689;30;19979;-91
2023/05/24 17:19:11;;;;;;;;;;;;;;;-143.29;100.00;62188.47;4646554;30;19924;-90
2023/05/24 17:21:36;;;;;;;;;;;;;;;-143.29;100.00;62188.47;4644562;30;19935;-90
2023/05/24 17:24:02;;;;;;;;;;;;;;;-143.29;100.00;62188.47;4633663;30;19925;-92
2023/05/24 17:26:27;;;;;;;;;;;;;;;-143.29;100.00;62188.47;4633658;31;19924;-91
2023/05/24 17:28:52;;;;;;;;;;;;;;;-143.29;100.00;62188.47;4633555;30;19925;-91
2023/05/24 17:31:17;;;;;;;;;;;;;;;-143.29;100.00;62188.47;4637502;30;20049;-91
2023/05/24 17:33:43;;;;;;;;;;;;;;;-143.29;100.00;62188.47;4636084;30;20397;-90
2023/05/24 17:36:08;;;;;;;;;;;;;;;-143.29;100.00;62188.47;4647755;30;19936;-89
2023/05/24 17:38:36;;;;;;;;;;;;;;;-143.29;100.00;62188.47;4644782;30;20412;-90
2023/05/24 17:41:01;;;;;;;;;;;;;;;-143.29;100.00;62188.47;4633916;30;20003;-90
2023/05/24 17:43:30;;;;;;;;;;;;;;;-143.29;100.00;62188.47;4650204;30;20462;-91
2023/05/24 17:46:02;;;;;;;;;;;;;;;-143.29;100.00;62188.47;4650014;30;20005;-90
2023/05/24 17:48:30;;;;;;;;;;;;;;;-143.29;100.00;62188.47;4641663;30;19929;-90
2023/05/24 17:50:56;;;;;;;;;;;;;;;-143.29;100.00;62188.47;4640713;30;19928;-90
2023/05/24 17:53:21;;;;;;;;;;;;;;;-143.29;100.00;62188.47;4654829;30;19920;-90
2023/05/24 17:55:46;;;;;;;;;;;;;;;-143.29;100.00;62188.47;4638948;30;19932;-90
2023/05/24 17:58:11;;;;;;;;;;;;;;;-143.29;100.00;62188.47;4641591;30;19924;-90
2023/05/24 18:00:36;;;;;;;;;;;;;;;-143.29;100.00;62188.47;4647068;30;19930;-90
2023/05/24 18:03:02;;;;;;;;;;;;;;;-143.29;100.00;62188.47;4643485;30;20460;-90
2023/05/24 18:05:27;;;;;;;;;;;;;;;-143.29;100.00;62188.47;4645561;30;19943;-90
2023/05/24 18:07:52;;;;;;;;;;;;;;;-143.29;100.00;62188.47;4647500;30;19979;-90
2023/05/24 18:10:18;;;;;;;;;;;;;;;-143.29;100.00;62188.47;4649511;30;20013;-90
2023/05/24 18:12:43;;;;;;;;;;;;;;;-143.29;100.00;62188.47;4647696;30;19928;-89
2023/05/24 18:15:08;;;;;;;;;;;;;;;-143.29;100.00;62188.47;4640490;30;19932;-89
2023/05/24 18:17:34;;;;;;;;;;;;;;;-143.29;100.00;62188.47;4637489;30;19925;-89
2023/05/24 18:19:59;;;;;;;;;;;;;;;-143.29;100.00;62188.47;4641673;30;19935;-89
2023/05/24 18:22:25;;;;;;;;;;;;;;;-143.29;100.00;62188.47;4647500;30;20425;-90
2023/05/24 18:24:50;;;;;;;;;;;;;;;-143.29;100.00;62188.47;4633100;30;19936;-89
2023/05/24 18:27:15;;;;;;;;;;;;;;;-143.29;100.00;62188.47;4636753;30;19928;-89
2023/05/24 18:29:40;;;;;;;;;;;;;;;-143.29;100.00;62188.47;4645016;30;20496;-89
2023/05/24 18:32:06;;;;;;;;;;;;;;;-143.29;100.00;62188.47;4662193;30;20431;-89
2023/05/24 18:34:32;;;;;;;;;;;;;;;-143.29;100.00;62188.47;4647633;30;19928;-89
2023/05/24 18:36:57;;;;;;;;;;;;;;;-143.29;100.00;62188.47;4644279;30;20392;-90
2023/05/24 18:39:22;;;;;;;;;;;;;;;-143.29;100.00;62188.47;4636570;30;19928;-90
2023/05/24 18:41:47;;;;;;;;;;;;;;;-143.29;100.00;62188.47;4639095;30;19938;-90
2023/05/24 18:44:13;;;;;;;;;;;;;;;-143.29;100.00;62188.47;4645802;30;19936;-91
2023/05/24 18:46:38;;;;;;;;;;;;;;;-143.29;100.00;62188.47;4643783;30;20023;-91
2023/05/24 18:49:07;;;;;;;;;;;;;;;-143.29;100.00;62188.47;4643247;30;19968;-90
2023/05/24 18:51:32;;;;;;;;;;;;;;;-143.29;100.00;62188.47;4649558;30;20393;-90
2023/05/24 18:53:57;;;;;;;;;;;;;;;-143.29;100.00;62188.47;4645482;30;19928;-90
2023/05/24 18:56:23;;;;;;;;;;;;;;;-143.29;100.00;62188.47;4649124;30;20395;-90
2023/05/24 18:58:49;;;;;;;;;;;;;;;-143.29;100.00;62188.47;4649505;30;20015;-90
2023/05/24 19:01:16;;;;;;;;;;;;;;;-143.29;100.00;62188.47;4640020;30;20396;-90
2023/05/24 19:03:41;;;;;;;;;;;;;;;-143.29;100.00;62188.47;4635389;30;19947;-90
2023/05/24 19:06:06;;;;;;;;;;;;;;;-143.29;100.00;62188.47;4646920;30;19932;-91
2023/05/24 19:08:32;;;;;;;;;;;;;;;-143.29;100.00;62188.47;4649186;30;19967;-90
2023/05/24 19:10:57;;;;;;;;;;;;;;;-143.29;100.00;62188.47;4649262;30;19924;-90
2023/05/24 19:13:24;;;;;;;;;;;;;;;-143.29;100.00;62188.47;4647421;30;20286;-90
2023/05/24 19:15:49;;;;;;;;;;;;;;;-143.29;100.00;62188.47;4644487;30;20401;-90
2023/05/24 19:18:15;;;;;;;;;;;;;;;-143.29;100.00;62188.47;4661075;30;19928;-90
2023/05/24 19:20:40;;;;;;;;;;;;;;;-143.29;100.00;62188.47;4644154;30;19995;-91
2023/05/24 19:23:05;;;;;;;;;;;;;;;-143.29;100.00;62188.47;4632074;30;19932;-90
2023/05/24 19:25:30;;;;;;;;;;;;;;;-143.29;100.00;62188.47;4643180;30;19924;-90
2023/05/24 19:27:56;;;;;;;;;;;;;;;-143.29;100.00;62188.47;4648354;30;19938;-90
2023/05/24 19:30:21;;;;;;;;;;;;;;;-143.29;100.00;62188.47;4648267;30;19974;-91
2023/05/24 19:32:46;;;;;;;;;;;;;;;-143.29;100.00;62188.47;4648897;30;20027;-90
2023/05/24 19:35:12;;;;;;;;;;;;;;;-143.29;100.00;62188.47;4656421;30;19943;-91
2023/05/24 19:37:37;;;;;;;;;;;;;;;-143.29;100.00;62188.47;4648213;30;19928;-91
2023/05/24 19:40:03;;;;;;;;;;;;;;;-143.29;100.00;62188.47;4648368;30;19928;-91
2023/05/24 19:42:28;;;;;;;;;;;;;;;-143.29;100.00;62188.47;4646268;30;19936;-90
2023/05/24 19:44:53;;;;;;;;;;;;;;;-143.29;100.00;62188.47;4646081;30;19935;-92
2023/05/24 19:47:19;;;;;;;;;;;;;;;-143.29;100.00;62188.47;4644506;30;19935;-91
2023/05/24 19:49:44;;;;;;;;;;;;;;;-143.29;100.00;62188.47;4639711;30;20400;-91
2023/05/24 19:52:09;;;;;;;;;;;;;;;-143.29;100.00;62188.47;4641969;30;19983;-91
2023/05/24 19:54:35;;;;;;;;;;;;;;;-143.29;100.00;62188.47;4638232;30;20404;-90
2023/05/24 19:57:00;;;;;;;;;;;;;;;-143.29;100.00;62188.47;4639607;30;20312;-91
2023/05/24 19:59:26;;;;;;;;;;;;;;;-143.29;100.00;62188.47;4646841;30;19932;-90
2023/05/24 20:01:51;;;;;;;;;;;;;;;-143.29;100.00;62188.47;4642825;30;20006;-91
2023/05/24 20:04:16;;;;;;;;;;;;;;;-143.29;100.00;62188.47;4660401;30;19943;-92
2023/05/24 20:06:41;;;;;;;;;;;;;;;-143.29;100.00;62188.47;4647707;30;19924;-91
2023/05/24 20:09:07;;;;;;;;;;;;;;;-143.29;100.00;62188.47;4637926;30;20011;-91
2023/05/24 20:11:33;;;;;;;;;;;;;;;-143.29;100.00;62188.47;4634398;30;20520;-91
2023/05/24 20:13:58;;;;;;;;;;;;;;;-143.29;100.00;62188.47;4642808;30;19928;-92
2023/05/24 20:16:24;;;;;;;;;;;;;;;-143.29;100.00;62188.47;4646525;30;20392;-91
2023/05/24 20:18:49;;;;;;;;;;;;;;;-143.29;100.00;62188.47;4646824;30;19931;-91
2023/05/24 20:21:16;;;;;;;;;;;;;;;-143.29;100.00;62188.47;4646758;30;19931;-91
2023/05/24 20:23:41;;;;;;;;;;;;;;;-143.29;100.00;62188.47;4647906;30;20430;-90
2023/05/24 20:26:06;;;;;;;;;;;;;;;-143.29;100.00;62188.47;4647915;30;20015;-91
2023/05/24 20:28:32;;;;;;;;;;;;;;;-143.29;100.00;62188.47;4641256;30;20364;-90
2023/05/24 20:30:57;;;;;;;;;;;;;;;-143.29;100.00;62188.47;4635423;30;19929;-91
2023/05/24 20:33:23;;;;;;;;;;;;;;;-143.29;100.00;62188.47;4631267;30;20420;-91
2023/05/24 20:35:48;;;;;;;;;;;;;;;-143.29;100.00;62188.47;4643349;30;19928;-91
2023/05/24 20:38:14;;;;;;;;;;;;;;;-143.29;100.00;62188.47;4650226;30;19979;-92
2023/05/24 20:40:39;;;;;;;;;;;;;;;-143.29;100.00;62188.47;4641319;30;19978;-92
2023/05/24 20:43:05;;;;;;;;;;;;;;;-143.29;100.00;62188.47;4642507;30;19979;-90
2023/05/24 20:45:30;;;;;;;;;;;;;;;-143.29;100.00;62188.47;4647680;30;19932;-91
2023/05/24 20:47:56;;;;;;;;;;;;;;;-143.29;100.00;62188.47;4642690;30;19961;-91
2023/05/24 20:50:21;;;;;;;;;;;;;;;-143.29;100.00;62188.47;4646708;30;19932;-92
2023/05/24 20:52:47;;;;;;;;;;;;;;;-143.29;100.00;62188.47;4650738;30;19959;-91
2023/05/24 20:55:15;;;;;;;;;;;;;;;-143.29;100.00;62188.47;4643183;30;20282;-91
2023/05/24 20:57:40;;;;;;;;;;;;;;;-143.29;100.00;62188.47;4644081;30;20010;-91
2023/05/24 21:00:06;;;;;;;;;;;;;;;-143.29;100.00;62188.47;4650695;30;20028;-92
2023/05/24 21:02:31;;;;;;;;;;;;;;;-143.29;100.00;62188.47;4649360;30;20242;-91
2023/05/24 21:04:56;;;;;;;;;;;;;;;-143.29;100.00;62188.47;4644196;30;19936;-91
2023/05/24 21:07:22;;;;;;;;;;;;;;;-143.29;100.00;62188.47;4635051;30;20296;-91
2023/05/24 21:09:47;;;;;;;;;;;;;;;-143.29;100.00;62188.47;4642733;30;19939;-91
2023/05/24 21:12:12;;;;;;;;;;;;;;;-143.29;100.00;62188.47;4650566;30;19927;-92
2023/05/24 21:14:37;;;;;;;;;;;;;;;-143.29;100.00;62188.47;4633009;30;19929;-89
2023/05/24 21:17:03;;;;;;;;;;;;;;;-143.29;100.00;62188.47;4634905;30;19929;-89
2023/05/24 21:19:28;;;;;;;;;;;;;;;-143.29;100.00;62188.47;4638103;30;20400;-90
2023/05/24 21:21:53;;;;;;;;;;;;;;;-143.29;100.00;62188.47;4649850;30;19931;-89
2023/05/24 21:24:18;;;;;;;;;;;;;;;-143.29;100.00;62188.47;4661761;30;20023;-89
2023/05/24 21:26:43;;;;;;;;;;;;;;;-143.29;100.00;62188.47;4650196;30;19928;-89
2023/05/24 21:29:09;;;;;;;;;;;;;;;-143.29;100.00;62188.47;4649547;30;19930;-89
2023/05/24 21:31:34;;;;;;;;;;;;;;;-143.29;100.00;62188.47;4649776;30;19928;-89
2023/05/24 21:34:00;;;;;;;;;;;;;;;-143.29;100.00;62188.47;4650286;30;19932;-89
2023/05/24 21:36:25;;;;;;;;;;;;;;;-143.29;100.00;62188.47;4650402;30;19978;-89
2023/05/24 21:38:50;;;;;;;;;;;;;;;-143.29;100.00;62188.47;4648581;30;19932;-89
2023/05/24 21:41:15;;;;;;;;;;;;;;;-143.29;100.00;62188.47;4648746;30;19979;-89
2023/05/24 21:43:41;;;;;;;;;;;;;;;-143.29;100.00;62188.47;4650174;30;19924;-89
2023/05/24 21:46:06;;;;;;;;;;;;;;;-143.29;100.00;62188.47;4650282;30;19934;-88
2023/05/24 21:48:32;;;;;;;;;;;;;;;-143.29;100.00;62188.47;4644731;30;19935;-89
2023/05/24 21:50:57;;;;;;;;;;;;;;;-143.29;100.00;62188.47;4633366;30;20444;-89
2023/05/24 21:53:22;;;;;;;;;;;;;;;-143.29;100.00;62188.47;4645634;30;20393;-88
2023/05/24 21:55:47;;;;;;;;;;;;;;;-143.29;100.00;62188.47;4643416;30;19932;-88
2023/05/24 21:58:13;;;;;;;;;;;;;;;-143.29;100.00;62188.47;4648578;30;20518;-89
2023/05/24 22:00:38;;;;;;;;;;;;;;;-143.29;100.00;62188.47;4663191;30;20266;-89
2023/05/24 22:03:03;;;;;;;;;;;;;;;-143.29;100.00;62188.47;4644445;30;19935;-89
2023/05/24 22:05:29;;;;;;;;;;;;;;;-143.29;100.00;62188.47;4634499;30;19940;-89
2023/05/24 22:07:54;;;;;;;;;;;;;;;-143.29;100.00;62188.47;4639771;30;20381;-89
2023/05/24 22:10:19;;;;;;;;;;;;;;;-143.29;100.00;62188.47;4647087;30;19932;-89
2023/05/24 22:12:44;;;;;;;;;;;;;;;-143.29;100.00;62188.47;4649507;30;20528;-89
2023/05/24 22:15:10;;;;;;;;;;;;;;;-143.29;100.00;62188.47;4645169;30;19935;-89
2023/05/24 22:17:35;;;;;;;;;;;;;;;-143.29;100.00;62188.47;4649746;30;20455;-88
2023/05/24 22:20:03;;;;;;;;;;;;;;;-143.29;100.00;62188.47;4645644;30;20396;-89
2023/05/24 22:22:28;;;;;;;;;;;;;;;-143.29;100.00;62188.47;4649613;30;20081;-89
2023/05/24 22:24:54;;;;;;;;;;;;;;;-143.29;100.00;62188.47;4646253;30;20027;-89
2023/05/24 22:27:19;;;;;;;;;;;;;;;-143.29;100.00;62188.47;4638242;30;19935;-89
2023/05/24 22:29:45;;;;;;;;;;;;;;;-143.29;100.00;62188.47;4649332;30;19924;-90
2023/05/24 22:32:10;;;;;;;;;;;;;;;-143.29;100.00;62188.47;4647312;30;20039;-90
2023/05/24 22:34:36;;;;;;;;;;;;;;;-143.29;100.00;62188.47;4632240;30;19928;-91
2023/05/24 22:37:01;;;;;;;;;;;;;;;-143.29;100.00;62188.47;4631656;30;19972;-91
2023/05/24 22:39:26;;;;;;;;;;;;;;;-143.29;100.00;62188.47;4639183;30;19943;-90
2023/05/24 22:41:52;;;;;;;;;;;;;;;-143.29;100.00;62188.47;4647190;30;19955;-90
2023/05/24 22:44:17;;;;;;;;;;;;;;;-143.29;100.00;62188.47;4643234;30;20287;-91
2023/05/24 22:46:42;;;;;;;;;;;;;;;-143.29;100.00;62188.47;4636253;30;20407;-91
2023/05/24 22:49:11;;;;;;;;;;;;;;;-143.29;100.00;62188.47;4653860;30;20440;-91
2023/05/24 22:51:37;;;;;;;;;;;;;;;-143.29;100.00;62188.47;4631332;30;19929;-90
2023/05/24 22:54:02;;;;;;;;;;;;;;;-143.29;100.00;62188.47;4632266;30;19924;-91
2023/05/24 22:56:28;;;;;;;;;;;;;;;-143.29;100.00;62188.47;4651868;30;19963;-91
2023/05/24 22:58:53;;;;;;;;;;;;;;;-143.29;100.00;62188.47;4640824;30;19928;-91
2023/05/24 23:01:18;;;;;;;;;;;;;;;-143.29;100.00;62188.47;4643930;30;19935;-91
2023/05/24 23:03:43;;;;;;;;;;;;;;;-143.29;100.00;62188.47;4631876;30;20294;-91
2023/05/24 23:06:10;;;;;;;;;;;;;;;-143.29;100.00;62188.47;4661795;30;20002;-90
2023/05/24 23:08:36;;;;;;;;;;;;;;;-143.29;100.00;62188.47;4647471;30;20352;-90
2023/05/24 23:11:08;;;;;;;;;;;;;;;-143.29;100.00;62188.47;4637393;30;19928;-90
2023/05/24 23:13:34;;;;;;;;;;;;;;;-143.29;100.00;62188.47;4643638;30;19972;-91
2023/05/24 23:16:00;;;;;;;;;;;;;;;-143.29;100.00;62188.47;4644635;30;19998;-91
2023/05/24 23:18:25;;;;;;;;;;;;;;;-143.29;100.00;62188.47;4630370;30;19928;-90
2023/05/24 23:20:53;;;;;;;;;;;;;;;-143.29;100.00;62188.47;4624238;31;19928;-91
2023/05/24 23:23:19;;;;;;;;;;;;;;;-143.29;100.00;62188.47;4618579;31;19929;-91
2023/05/24 23:25:44;;;;;;;;;;;;;;;-143.29;100.00;62188.47;4630334;30;19936;-91
2023/05/24 23:28:10;;;;;;;;;;;;;;;-143.29;100.00;62188.47;4621137;31;20015;-90
2023/05/24 23:30:35;;;;;;;;;;;;;;;-143.29;100.00;62188.47;4622208;30;19936;-91
2023/05/24 23:33:00;;;;;;;;;;;;;;;-143.29;100.00;62188.47;4615205;31;19936;-91
2023/05/24 23:35:25;;;;;;;;;;;;;;;-143.29;100.00;62188.47;4616889;31;19929;-91
2023/05/24 23:37:52;;;;;;;;;;;;;;;-143.29;100.00;62188.47;4644328;30;19925;-91
2023/05/24 23:40:17;;;;;;;;;;;;;;;-143.29;100.00;62188.47;4631222;30;19940;-92
2023/05/24 23:42:43;;;;;;;;;;;;;;;-143.29;100.00;62188.47;4644651;30;19925;-91
2023/05/24 23:45:08;;;;;;;;;;;;;;;-143.29;100.00;62188.47;4642154;30;19943;-90
2023/05/24 23:47:33;;;;;;;;;;;;;;;-143.29;100.00;62188.47;4614732;31;19963;-91
2023/05/24 23:49:59;;;;;;;;;;;;;;;-143.29;100.00;62188.47;4613567;31;19925;-91
2023/05/24 23:52:24;;;;;;;;;;;;;;;-143.29;100.00;62188.47;4614661;31;20020;-92
2023/05/24 23:54:49;;;;;;;;;;;;;;;-143.29;100.00;62188.47;4627412;30;20032;-91
2023/05/24 23:57:16;;;;;;;;;;;;;;;-143.29;100.00;62188.47;4614766;31;19968;-91
2023/05/24 23:59:41;;;;;;;;;;;;;;;-143.29;100.00;62188.47;4614784;31;19932;-91
